Armstrong, Canada
Current Conditions -  °F | °C
As of 3:09 PM on Tuesday 25 Nov 2014 (Local Time) from CYLW Reporting Station
Light Rain Light Rain  
Wind Chill: 36°   Ceiling: 1600
Heat Index: 39°   Visibility: 9mi
Dew Point: 36°   Wind: 5mph
Humidity: 87%   Direction: 150°SSE
Pressure: 30.24"   Gusts: NA
Location:  50.45°N, 119.2°W
Report Text: CYLW 252309Z AUTO 15004KT 9SM -RA BKN016 OVC055 04/02 A3024 RMK SLP257
Loading
Personal Weather Stations






























Interactive Weather Map New forecast layout! Learn more

10-Day Weather Forecast

Advertisements
Track Severe Weather on mobile